Gdf Suez North Sea — HPSQ — position and weather

sailwx.info

Track history (hours):
 
Tides and Currents Weather Stations Pressure Air Temp Water Temp Dewpoint Dewpoint Depression Visibility Wind Speed Wind Dir Waves Ship Positions

Gdf Suez North Sea

Last reported at 2016-Aug-18 19:33 UTC. Time now 2016-Aug-24 01:37 UTC.
Position N 22°04' E 114°24'.

Length 190 m; draft 7 m.

Type: Cargo ship. MMSI: 373341000.

Date/timePositionNaut miles runAvg speedWind from/ knotsBaromVisibWave heightAir tempDewpointWater temp
2016-Aug-18 19:33N 22°04' E 114°24'  
2016-Aug-16 07:14N 24°12' E 118°58'2810.3
2016-Aug-16 04:33N 24°37' E 119°12'1312.5
2016-Aug-16 03:33N 24°49' E 119°08'1211.8
2016-Aug-16 02:33N 24°60' E 119°03'9 9.1
2016-Aug-16 01:33N 25°09' E 119°00'5 4.5
2016-Aug-16 00:30N 25°13' E 118°57'0 0.0
2016-Aug-15 23:30N 25°13' E 118°57'0 0.0
2016-Aug-15 22:24N 25°13' E 118°57'0 0.0
2016-Aug-15 21:30N 25°13' E 118°57'0 0.0
2016-Aug-15 20:30N 25°13' E 118°57'0 0.0
2016-Aug-15 19:30N 25°13' E 118°57'0 0.0
2016-Aug-15 18:30N 25°13' E 118°57'0 0.0
2016-Aug-15 12:06N 25°13' E 118°57'0 0.0
2016-Aug-15 11:06N 25°13' E 118°57'0 0.0
2016-Aug-15 10:18N 25°13' E 118°57'0 0.0
2016-Aug-15 08:24N 25°13' E 118°57'0 0.0
2016-Aug-15 07:18N 25°13' E 118°57'0 0.0
2016-Aug-15 04:33N 25°13' E 118°57'0 0.0
2016-Aug-15 03:30N 25°13' E 118°57'0 0.1
2016-Aug-15 02:30N 25°13' E 118°57'0 0.0
2016-Aug-15 01:24N 25°13' E 118°57'0 0.0
2016-Aug-15 00:24N 25°13' E 118°57'0 0.0
2016-Aug-14 23:24N 25°13' E 118°57'0 0.0
2016-Aug-14 22:30N 25°13' E 118°57'0 0.0
2016-Aug-14 21:30N 25°13' E 118°57'0 0.0
2016-Aug-14 20:24N 25°13' E 118°57'0 0.1
2016-Aug-14 19:30N 25°13' E 118°57'0 0.1
2016-Aug-14 18:30N 25°13' E 118°57'0 0.0
2016-Aug-14 17:30N 25°13' E 118°57'0 0.0
2016-Aug-14 16:24N 25°13' E 118°57'0 0.0
2016-Aug-14 15:30N 25°13' E 118°57'0 0.0
2016-Aug-14 14:30N 25°13' E 118°57'0 0.0
2016-Aug-14 13:24N 25°13' E 118°57'0 0.0
2016-Aug-14 12:30N 25°13' E 118°57'0 0.0
2016-Aug-14 11:18N 25°13' E 118°57'0 0.0
2016-Aug-14 10:30N 25°13' E 118°57'0 0.0
2016-Aug-14 09:30N 25°13' E 118°57'0 0.0
2016-Aug-14 08:33N 25°13' E 118°57'0 0.0
2016-Aug-14 07:30N 25°13' E 118°57'0 0.0
2016-Aug-14 06:24N 25°13' E 118°57'0 0.0
2016-Aug-14 04:30N 25°13' E 118°57'0 0.0
2016-Aug-14 03:30N 25°13' E 118°57'0 0.0
2016-Aug-14 02:24N 25°13' E 118°57'0 0.0
2016-Aug-14 01:24N 25°13' E 118°57'0 0.0
2016-Aug-14 00:18N 25°13' E 118°57'0 0.0
2016-Aug-13 23:30N 25°13' E 118°57'0 0.0
2016-Aug-13 22:24N 25°13' E 118°57'0 0.0
2016-Aug-13 21:24N 25°13' E 118°57'0 0.0
2016-Aug-13 20:30N 25°13' E 118°57'0 0.0
2016-Aug-13 19:18N 25°13' E 118°57'0 0.0
2016-Aug-13 18:30N 25°13' E 118°57'0 0.0
2016-Aug-13 17:30N 25°13' E 118°57'0 0.0
2016-Aug-13 16:30N 25°13' E 118°57'0 0.0
2016-Aug-13 15:30N 25°13' E 118°57'0 0.0
2016-Aug-13 14:24N 25°13' E 118°57'0 0.0
2016-Aug-13 13:30N 25°13' E 118°57'0 0.0
2016-Aug-13 12:30N 25°13' E 118°57'0 0.0
2016-Aug-13 11:30N 25°13' E 118°57'1 1.3
2016-Aug-13 10:33N 25°12' E 118°59'8 7.6
2016-Aug-13 09:31N 25°05' E 119°01'8 7.9
2016-Aug-13 08:33N 24°58' E 119°05'1 1.2
2016-Aug-13 07:20N 24°58' E 119°06'0 0.1
2016-Aug-13 05:32N 24°58' E 119°06'0 0.1
2016-Aug-13 04:32N 24°58' E 119°06'0 0.1
2016-Aug-13 03:32N 24°57' E 119°06'0 0.1
2016-Aug-13 02:32N 24°57' E 119°06'0 0.0
2016-Aug-13 01:26N 24°57' E 119°06'0 0.0
2016-Aug-13 00:32N 24°57' E 119°06'0 0.1
2016-Aug-12 23:26N 24°57' E 119°06'0 0.1
2016-Aug-12 21:26N 24°58' E 119°06'0 0.0
2016-Aug-12 20:20N 24°58' E 119°06'0 0.0
2016-Aug-12 19:32N 24°58' E 119°06'0 0.1
2016-Aug-12 18:32N 24°58' E 119°06'0 0.0
2016-Aug-12 17:26N 24°58' E 119°06'0 0.1
2016-Aug-12 16:20N 24°58' E 119°06'0 0.1
2016-Aug-12 15:20N 24°57' E 119°06'0 0.1
2016-Aug-12 14:32N 24°57' E 119°06'0 0.0
2016-Aug-12 11:14N 24°57' E 119°06'0 0.1
2016-Aug-12 09:32N 24°57' E 119°06'0 0.0
2016-Aug-12 08:32N 24°58' E 119°06'0 0.0
2016-Aug-12 06:05N 24°58' E 119°06'0 0.0
2016-Aug-12 05:29N 24°58' E 119°06'0 0.1
2016-Aug-12 04:29N 24°58' E 119°06'0 0.1
2016-Aug-12 03:29N 24°57' E 119°06'0 0.1
2016-Aug-12 02:17N 24°57' E 119°06'0 0.0
2016-Aug-12 01:29N 24°57' E 119°06'0 0.0
2016-Aug-12 00:17N 24°57' E 119°06'0 0.0
2016-Aug-11 23:17N 24°57' E 119°06'0 0.1
2016-Aug-11 22:05N 24°57' E 119°06'0 0.1
2016-Aug-11 21:17N 24°57' E 119°06'0 0.0
2016-Aug-11 20:17N 24°57' E 119°06'0 0.0
2016-Aug-11 19:17N 24°57' E 119°06'0 0.1
2016-Aug-11 18:23N 24°58' E 119°06'0 0.0
2016-Aug-11 17:29N 24°58' E 119°06'0 0.0
2016-Aug-11 16:29N 24°57' E 119°06'0 0.1
2016-Aug-11 15:29N 24°57' E 119°06'0 0.1
2016-Aug-11 14:29N 24°57' E 119°06'0 0.0
2016-Aug-11 11:05N 24°57' E 119°06'0 0.0
2016-Aug-11 09:29N 24°57' E 119°06'0 0.1
2016-Aug-11 08:29N 24°57' E 119°06'0 0.0
2016-Aug-11 07:29N 24°57' E 119°06'0 0.0
2016-Aug-11 06:29N 24°57' E 119°06'0 0.1
2016-Aug-11 05:29N 24°58' E 119°06'0 0.1
2016-Aug-11 04:23N 24°57' E 119°06'0 0.1
2016-Aug-11 03:23N 24°57' E 119°06'0 0.0
2016-Aug-11 02:29N 24°57' E 119°06'0 0.0
2016-Aug-11 01:11N 24°57' E 119°06'0 0.0
2016-Aug-10 23:29N 24°57' E 119°06'0 0.0
2016-Aug-10 22:23N 24°57' E 119°06'0 0.0
2016-Aug-10 20:23N 24°57' E 119°06'0 0.0
2016-Aug-10 19:23N 24°57' E 119°06'0 0.1
2016-Aug-10 18:29N 24°57' E 119°06'0 0.1
2016-Aug-10 17:23N 24°58' E 119°06'0 0.0
2016-Aug-10 16:29N 24°58' E 119°06'0 0.1
2016-Aug-10 15:29N 24°57' E 119°06'0 0.0
2016-Aug-10 14:05N 24°57' E 119°06'0 0.0
2016-Aug-10 13:29N 24°57' E 119°06'0 0.0
2016-Aug-10 12:17N 24°57' E 119°06'0 0.0
2016-Aug-10 10:11N 24°57' E 119°06'0 0.1
2016-Aug-10 09:11N 24°57' E 119°06'0 0.1
2016-Aug-10 08:05N 24°57' E 119°06'0 0.1
2016-Aug-10 06:17N 24°58' E 119°06'0 0.1
2016-Aug-10 05:29N 24°58' E 119°06'0 0.0
2016-Aug-10 04:23N 24°58' E 119°06'0 0.0
2016-Aug-10 03:29N 24°58' E 119°06'0 0.0
2016-Aug-10 02:23N 24°58' E 119°06'0 0.1
2016-Aug-10 01:11N 24°57' E 119°06'0 0.0
2016-Aug-10 00:29N 24°57' E 119°06'0 0.1
2016-Aug-09 23:29N 24°57' E 119°06'0 0.0
2016-Aug-09 22:29N 24°57' E 119°06'0 0.0
2016-Aug-09 21:29N 24°57' E 119°06'0 0.1
2016-Aug-09 19:23N 24°57' E 119°06'0 0.1
2016-Aug-09 18:29N 24°58' E 119°06'0 0.0
2016-Aug-09 17:17N 24°58' E 119°06'0 0.1
2016-Aug-09 16:17N 24°58' E 119°06'0 0.0
2016-Aug-09 15:17N 24°58' E 119°06'0 0.0
2016-Aug-09 14:23N 24°57' E 119°06'0 0.1
2016-Aug-09 13:05N 24°57' E 119°06'0 0.1
2016-Aug-09 12:29N 24°57' E 119°06'2 1.6
2016-Aug-09 11:33N 24°56' E 119°07'8 8.4
2016-Aug-09 10:33N 24°48' E 119°08'1110.6
2016-Aug-09 09:33N 24°37' E 119°11'1110.6
2016-Aug-09 08:34N 24°27' E 119°13'7 6.9
2016-Aug-09 07:31N 24°20' E 119°15'9310.1
2016-Aug-08 22:20N 22°54' E 119°54'810.8
2016-Aug-08 21:33N 22°46' E 119°54'1111.5
2016-Aug-08 20:34N 22°34' E 119°54'  
Track history (hours):
 
Tides and Currents Weather Stations Pressure Air Temp Water Temp Dewpoint Dewpoint Depression Visibility Wind Speed Wind Dir Waves Ship Positions

Gdf Suez North Sea

Last reported at 2016-Aug-18 19:33 UTC. Time now 2016-Aug-24 01:37 UTC.
Position N 22°04' E 114°24'.

Length 190 m; draft 7 m.

Type: Cargo ship. MMSI: 373341000.

Date/timePositionNaut miles runAvg speedWind from/ knotsBaromVisibWave heightAir tempDewpointWater temp
2016-Aug-18 19:33N 22°04' E 114°24'  
2016-Aug-16 07:14N 24°12' E 118°58'2810.3
2016-Aug-16 04:33N 24°37' E 119°12'1312.5
2016-Aug-16 03:33N 24°49' E 119°08'1211.8
2016-Aug-16 02:33N 24°60' E 119°03'9 9.1
2016-Aug-16 01:33N 25°09' E 119°00'5 4.5
2016-Aug-16 00:30N 25°13' E 118°57'0 0.0
2016-Aug-15 23:30N 25°13' E 118°57'0 0.0
2016-Aug-15 22:24N 25°13' E 118°57'0 0.0
2016-Aug-15 21:30N 25°13' E 118°57'0 0.0
2016-Aug-15 20:30N 25°13' E 118°57'0 0.0
2016-Aug-15 19:30N 25°13' E 118°57'0 0.0
2016-Aug-15 18:30N 25°13' E 118°57'0 0.0
2016-Aug-15 12:06N 25°13' E 118°57'0 0.0
2016-Aug-15 11:06N 25°13' E 118°57'0 0.0
2016-Aug-15 10:18N 25°13' E 118°57'0 0.0
2016-Aug-15 08:24N 25°13' E 118°57'0 0.0
2016-Aug-15 07:18N 25°13' E 118°57'0 0.0
2016-Aug-15 04:33N 25°13' E 118°57'0 0.0
2016-Aug-15 03:30N 25°13' E 118°57'0 0.1
2016-Aug-15 02:30N 25°13' E 118°57'0 0.0
2016-Aug-15 01:24N 25°13' E 118°57'0 0.0
2016-Aug-15 00:24N 25°13' E 118°57'0 0.0
2016-Aug-14 23:24N 25°13' E 118°57'0 0.0
2016-Aug-14 22:30N 25°13' E 118°57'0 0.0
2016-Aug-14 21:30N 25°13' E 118°57'0 0.0
2016-Aug-14 20:24N 25°13' E 118°57'0 0.1
2016-Aug-14 19:30N 25°13' E 118°57'0 0.1
2016-Aug-14 18:30N 25°13' E 118°57'0 0.0
2016-Aug-14 17:30N 25°13' E 118°57'0 0.0
2016-Aug-14 16:24N 25°13' E 118°57'0 0.0
2016-Aug-14 15:30N 25°13' E 118°57'0 0.0
2016-Aug-14 14:30N 25°13' E 118°57'0 0.0
2016-Aug-14 13:24N 25°13' E 118°57'0 0.0
2016-Aug-14 12:30N 25°13' E 118°57'0 0.0
2016-Aug-14 11:18N 25°13' E 118°57'0 0.0
2016-Aug-14 10:30N 25°13' E 118°57'0 0.0
2016-Aug-14 09:30N 25°13' E 118°57'0 0.0
2016-Aug-14 08:33N 25°13' E 118°57'0 0.0
2016-Aug-14 07:30N 25°13' E 118°57'0 0.0
2016-Aug-14 06:24N 25°13' E 118°57'0 0.0
2016-Aug-14 04:30N 25°13' E 118°57'0 0.0
2016-Aug-14 03:30N 25°13' E 118°57'0 0.0
2016-Aug-14 02:24N 25°13' E 118°57'0 0.0
2016-Aug-14 01:24N 25°13' E 118°57'0 0.0
2016-Aug-14 00:18N 25°13' E 118°57'0 0.0
2016-Aug-13 23:30N 25°13' E 118°57'0 0.0
2016-Aug-13 22:24N 25°13' E 118°57'0 0.0
2016-Aug-13 21:24N 25°13' E 118°57'0 0.0
2016-Aug-13 20:30N 25°13' E 118°57'0 0.0
2016-Aug-13 19:18N 25°13' E 118°57'0 0.0
2016-Aug-13 18:30N 25°13' E 118°57'0 0.0
2016-Aug-13 17:30N 25°13' E 118°57'0 0.0
2016-Aug-13 16:30N 25°13' E 118°57'0 0.0
2016-Aug-13 15:30N 25°13' E 118°57'0 0.0
2016-Aug-13 14:24N 25°13' E 118°57'0 0.0
2016-Aug-13 13:30N 25°13' E 118°57'0 0.0
2016-Aug-13 12:30N 25°13' E 118°57'0 0.0
2016-Aug-13 11:30N 25°13' E 118°57'1 1.3
2016-Aug-13 10:33N 25°12' E 118°59'8 7.6
2016-Aug-13 09:31N 25°05' E 119°01'8 7.9
2016-Aug-13 08:33N 24°58' E 119°05'1 1.2
2016-Aug-13 07:20N 24°58' E 119°06'0 0.1
2016-Aug-13 05:32N 24°58' E 119°06'0 0.1
2016-Aug-13 04:32N 24°58' E 119°06'0 0.1
2016-Aug-13 03:32N 24°57' E 119°06'0 0.1
2016-Aug-13 02:32N 24°57' E 119°06'0 0.0
2016-Aug-13 01:26N 24°57' E 119°06'0 0.0
2016-Aug-13 00:32N 24°57' E 119°06'0 0.1
2016-Aug-12 23:26N 24°57' E 119°06'0 0.1
2016-Aug-12 21:26N 24°58' E 119°06'0 0.0
2016-Aug-12 20:20N 24°58' E 119°06'0 0.0
2016-Aug-12 19:32N 24°58' E 119°06'0 0.1
2016-Aug-12 18:32N 24°58' E 119°06'0 0.0
2016-Aug-12 17:26N 24°58' E 119°06'0 0.1
2016-Aug-12 16:20N 24°58' E 119°06'0 0.1
2016-Aug-12 15:20N 24°57' E 119°06'0 0.1
2016-Aug-12 14:32N 24°57' E 119°06'0 0.0
2016-Aug-12 11:14N 24°57' E 119°06'0 0.1
2016-Aug-12 09:32N 24°57' E 119°06'0 0.0
2016-Aug-12 08:32N 24°58' E 119°06'0 0.0
2016-Aug-12 06:05N 24°58' E 119°06'0 0.0
2016-Aug-12 05:29N 24°58' E 119°06'0 0.1
2016-Aug-12 04:29N 24°58' E 119°06'0 0.1
2016-Aug-12 03:29N 24°57' E 119°06'0 0.1
2016-Aug-12 02:17N 24°57' E 119°06'0 0.0
2016-Aug-12 01:29N 24°57' E 119°06'0 0.0
2016-Aug-12 00:17N 24°57' E 119°06'0 0.0
2016-Aug-11 23:17N 24°57' E 119°06'0 0.1
2016-Aug-11 22:05N 24°57' E 119°06'0 0.1
2016-Aug-11 21:17N 24°57' E 119°06'0 0.0
2016-Aug-11 20:17N 24°57' E 119°06'0 0.0
2016-Aug-11 19:17N 24°57' E 119°06'0 0.1
2016-Aug-11 18:23N 24°58' E 119°06'0 0.0
2016-Aug-11 17:29N 24°58' E 119°06'0 0.0
2016-Aug-11 16:29N 24°57' E 119°06'0 0.1
2016-Aug-11 15:29N 24°57' E 119°06'0 0.1
2016-Aug-11 14:29N 24°57' E 119°06'0 0.0
2016-Aug-11 11:05N 24°57' E 119°06'0 0.0
2016-Aug-11 09:29N 24°57' E 119°06'0 0.1
2016-Aug-11 08:29N 24°57' E 119°06'0 0.0
2016-Aug-11 07:29N 24°57' E 119°06'0 0.0
2016-Aug-11 06:29N 24°57' E 119°06'0 0.1
2016-Aug-11 05:29N 24°58' E 119°06'0 0.1
2016-Aug-11 04:23N 24°57' E 119°06'0 0.1
2016-Aug-11 03:23N 24°57' E 119°06'0 0.0
2016-Aug-11 02:29N 24°57' E 119°06'0 0.0
2016-Aug-11 01:11N 24°57' E 119°06'0 0.0
2016-Aug-10 23:29N 24°57' E 119°06'0 0.0
2016-Aug-10 22:23N 24°57' E 119°06'0 0.0
2016-Aug-10 20:23N 24°57' E 119°06'0 0.0
2016-Aug-10 19:23N 24°57' E 119°06'0 0.1
2016-Aug-10 18:29N 24°57' E 119°06'0 0.1
2016-Aug-10 17:23N 24°58' E 119°06'0 0.0
2016-Aug-10 16:29N 24°58' E 119°06'0 0.1
2016-Aug-10 15:29N 24°57' E 119°06'0 0.0
2016-Aug-10 14:05N 24°57' E 119°06'0 0.0
2016-Aug-10 13:29N 24°57' E 119°06'0 0.0
2016-Aug-10 12:17N 24°57' E 119°06'0 0.0
2016-Aug-10 10:11N 24°57' E 119°06'0 0.1
2016-Aug-10 09:11N 24°57' E 119°06'0 0.1
2016-Aug-10 08:05N 24°57' E 119°06'0 0.1
2016-Aug-10 06:17N 24°58' E 119°06'0 0.1
2016-Aug-10 05:29N 24°58' E 119°06'0 0.0
2016-Aug-10 04:23N 24°58' E 119°06'0 0.0
2016-Aug-10 03:29N 24°58' E 119°06'0 0.0
2016-Aug-10 02:23N 24°58' E 119°06'0 0.1
2016-Aug-10 01:11N 24°57' E 119°06'0 0.0
2016-Aug-10 00:29N 24°57' E 119°06'0 0.1
2016-Aug-09 23:29N 24°57' E 119°06'0 0.0
2016-Aug-09 22:29N 24°57' E 119°06'0 0.0
2016-Aug-09 21:29N 24°57' E 119°06'0 0.1
2016-Aug-09 19:23N 24°57' E 119°06'0 0.1
2016-Aug-09 18:29N 24°58' E 119°06'0 0.0
2016-Aug-09 17:17N 24°58' E 119°06'0 0.1
2016-Aug-09 16:17N 24°58' E 119°06'0 0.0
2016-Aug-09 15:17N 24°58' E 119°06'0 0.0
2016-Aug-09 14:23N 24°57' E 119°06'0 0.1
2016-Aug-09 13:05N 24°57' E 119°06'0 0.1
2016-Aug-09 12:29N 24°57' E 119°06'2 1.6
2016-Aug-09 11:33N 24°56' E 119°07'8 8.4
2016-Aug-09 10:33N 24°48' E 119°08'1110.6
2016-Aug-09 09:33N 24°37' E 119°11'1110.6
2016-Aug-09 08:34N 24°27' E 119°13'7 6.9
2016-Aug-09 07:31N 24°20' E 119°15'9310.1
2016-Aug-08 22:20N 22°54' E 119°54'810.8
2016-Aug-08 21:33N 22°46' E 119°54'1111.5
2016-Aug-08 20:34N 22°34' E 119°54'  

Dump ship's entire track history